Aérodrome :
LOGIN :

S'inscrire | Disclaimer

   EN    FR    IT 

 










Légende :    VFR   VFR Marginal   IFR   IFR Intensif   IFR Très Intensif
Visi : 
Plafond : 
>= 8 km
>= 3000ft
5 à 8 km
1000 à 3000 ft
1500m à 5 km
500 à 1000 ft
800 à 1500m
200 à 500 ft
< 800m
< 200 ft
Symboles :   Orages  Brouillard  Fortes neiges  Fortes précipitations  Vent > 20 kt
SIGMETs :   Divers  Orages  Givrage  Turbulence  Onde Orograph.  Cendres Volcan.







- Altitude de l'aérodrome : 138 ft
- Code IATA : BIO


LEBB - Bilbao

DERNIER METAR :
  • 271200Z 06009KT 020V080 CAVOK 34/18 Q1014 NOSIG

METARs EXPIRÉS :
  • 271130Z 07005KT 020V140 CAVOK 33/17 Q1015 NOSIG
  • 271100Z 10003KT 030V160 CAVOK 28/20 Q1015 NOSIG
  • 271030Z VRB01KT CAVOK 24/19 Q1016 NOSIG
  • 271000Z VRB01KT CAVOK 24/19 Q1016 NOSIG
  • 270930Z VRB02KT CAVOK 23/19 Q1016 NOSIG

TAF TAF LEBB
Valide du 27 à 12h jusqu'au 28 à 12h UTC


271100Z 2712/2812 08008KT CAVOK TX35/2714Z TN17/2804Z
BECMG 2715/2718 30010KT
BECMG 2723/2801 VRB04KT
PROB30
TEMPO 2800/2806 3000 BR
Pas de NOTAMs connus pour ce terrain.
6 SIGMETs publiés pour la FIR Madrid (LECM) :
 
Turbulence forte
LECM SIGMET 8 VALID 271202/271600 LEVA
LECM MADRID FIR/UIR SEV TURB OBS AT 1202Z WI N4107 W00428 - N4207 W00234 - N4124 W00220 - N4030 W00424 - N4107 W00428 FL060/380 STNR NC=
Onde orographique forte
LECM SIGMET 7 VALID 271200/271500 LEVA
LECM MADRID FIR/UIR SEV MTW OBS AT 1124Z WI N4129 W00411 - N4154 W00250 - N4124 W00242 - N4047 W00401 - N4129 W00411 FL060/300 STNR WKN=
Onde orographique forte
LECM SIGMET 6 VALID 271200/271500 LEVA
LECM MADRID FIR/UIR SEV MTW FCST WI N4215 W00127 - N4213 W00323 - N4403 W00321 - N4321 W00131 - N4215 W00127 SFC/FL260 STNR WKN=
Orages noyés dans la masse
LECM SIGMET 5 VALID 271200/271500 LEVA
LECM MADRID FIR/UIR EMBD TS FCST N OF LINE N4304 W00823 - N4303 W00709 TOP FL340 MOV N 30KT NC=
Onde orographique forte
LECM SIGMET 3 VALID 270828/271200 LEVA
LECM MADRID FIR/UIR SEV MTW FCST N OF LINE N4245 W00324 - N4247 W00115 SFC/FL380 STNR WKN=
Onde orographique forte
LECM SIGMET 2 VALID 270822/271200 LEVA
LECM MADRID FIR/UIR SEV MTW OBS AT 0822Z WI N4129 W00411 - N4154 W00250 - N4124 W00242 - N4047 W00401 - N4129 W00411 FL060/300 STNR WKN=



MET'MAP, la Météo Aéronautique d'un coup d'oeil ! - Copyright ORBIFLY Décembre 2007 - Disclaimer

ORBIFLY MET'MAP TEAM :

Programmation & Développement : Alexandra Zaïnal
Conception & Développement : Baudouin d'Aumeries
Co-Programmation & Développement : Marc-Olivier Méhu
Soutien technique & logistique : Manuel Goepfert

Contact : metmap@orbifly.com




SOURCES & CREDITS :

   NOAA